sensor_id;sensor_type;location;lat;lon;timestamp;pressure;altitude;pressure_sealevel;temperature;humidity
11349;BME280;5729;43.570;27.826;2023-05-24T00:00:28;98858.69;;;15.52;100.00
11349;BME280;5729;43.570;27.826;2023-05-24T00:02:53;98854.03;;;15.52;100.00
11349;BME280;5729;43.570;27.826;2023-05-24T00:05:19;98856.00;;;15.55;100.00
11349;BME280;5729;43.570;27.826;2023-05-24T00:07:44;98854.81;;;15.53;100.00
11349;BME280;5729;43.570;27.826;2023-05-24T00:10:10;98852.50;;;15.51;100.00
11349;BME280;5729;43.570;27.826;2023-05-24T00:12:36;98840.91;;;15.44;100.00
11349;BME280;5729;43.570;27.826;2023-05-24T00:15:01;98841.66;;;15.44;100.00
11349;BME280;5729;43.570;27.826;2023-05-24T00:17:27;98846.31;;;15.44;100.00
11349;BME280;5729;43.570;27.826;2023-05-24T00:19:54;98849.41;;;15.49;100.00
11349;BME280;5729;43.570;27.826;2023-05-24T00:22:20;98852.50;;;15.51;100.00
11349;BME280;5729;43.570;27.826;2023-05-24T00:24:46;98843.19;;;15.49;100.00
11349;BME280;5729;43.570;27.826;2023-05-24T00:27:13;98848.63;;;15.49;100.00
11349;BME280;5729;43.570;27.826;2023-05-24T00:29:38;98849.00;;;15.47;100.00
11349;BME280;5729;43.570;27.826;2023-05-24T00:32:04;98850.97;;;15.43;100.00
11349;BME280;5729;43.570;27.826;2023-05-24T00:34:30;98856.38;;;15.47;100.00
11349;BME280;5729;43.570;27.826;2023-05-24T00:36:55;98820.00;;;15.26;100.00
11349;BME280;5729;43.570;27.826;2023-05-24T00:39:22;98851.38;;;15.38;100.00
11349;BME280;5729;43.570;27.826;2023-05-24T00:41:47;98851.00;;;15.40;100.00
11349;BME280;5729;43.570;27.826;2023-05-24T00:44:13;98851.75;;;15.44;100.00
11349;BME280;5729;43.570;27.826;2023-05-24T00:46:38;98854.47;;;15.40;100.00
11349;BME280;5729;43.570;27.826;2023-05-24T00:49:04;98852.53;;;15.37;100.00
11349;BME280;5729;43.570;27.826;2023-05-24T00:51:30;98845.16;;;15.38;100.00
11349;BME280;5729;43.570;27.826;2023-05-24T00:53:56;98834.34;;;15.31;100.00
11349;BME280;5729;43.570;27.826;2023-05-24T00:56:22;98851.75;;;15.40;100.00
11349;BME280;5729;43.570;27.826;2023-05-24T00:58:48;98849.81;;;15.44;100.00
11349;BME280;5729;43.570;27.826;2023-05-24T01:01:15;98835.84;;;15.42;100.00
11349;BME280;5729;43.570;27.826;2023-05-24T01:03:40;98848.28;;;15.40;100.00
11349;BME280;5729;43.570;27.826;2023-05-24T01:06:07;98849.84;;;15.34;100.00
11349;BME280;5729;43.570;27.826;2023-05-24T01:11:34;98845.59;;;15.29;100.00
11349;BME280;5729;43.570;27.826;2023-05-24T01:17:30;98825.47;;;15.16;100.00
11349;BME280;5729;43.570;27.826;2023-05-24T01:28:07;98831.69;;;15.06;100.00
11349;BME280;5729;43.570;27.826;2023-05-24T01:30:33;98837.13;;;15.02;100.00
11349;BME280;5729;43.570;27.826;2023-05-24T01:32:59;98835.59;;;14.98;100.00
11349;BME280;5729;43.570;27.826;2023-05-24T01:35:24;98833.28;;;14.96;100.00
11349;BME280;5729;43.570;27.826;2023-05-24T01:37:50;98830.59;;;14.89;100.00
11349;BME280;5729;43.570;27.826;2023-05-24T01:40:15;98829.41;;;14.90;100.00
11349;BME280;5729;43.570;27.826;2023-05-24T01:45:31;98833.69;;;14.87;100.00
11349;BME280;5729;43.570;27.826;2023-05-24T01:48:13;98829.41;;;14.83;100.00
11349;BME280;5729;43.570;27.826;2023-05-24T01:50:54;98828.66;;;14.82;100.00
11349;BME280;5729;43.570;27.826;2023-05-24T01:53:22;98827.88;;;14.82;100.00
11349;BME280;5729;43.570;27.826;2023-05-24T01:55:54;98831.78;;;14.77;100.00
11349;BME280;5729;43.570;27.826;2023-05-24T01:58:22;98828.63;;;14.79;100.00
11349;BME280;5729;43.570;27.826;2023-05-24T02:00:48;98833.69;;;14.80;100.00
11349;BME280;5729;43.570;27.826;2023-05-24T02:03:14;98828.63;;;14.79;100.00
11349;BME280;5729;43.570;27.826;2023-05-24T02:05:40;98831.34;;;14.79;100.00
11349;BME280;5729;43.570;27.826;2023-05-24T02:08:06;98828.28;;;14.77;100.00
11349;BME280;5729;43.570;27.826;2023-05-24T02:10:31;98831.34;;;14.79;100.00
11349;BME280;5729;43.570;27.826;2023-05-24T02:12:57;98835.66;;;14.76;100.00
11349;BME280;5729;43.570;27.826;2023-05-24T02:15:24;98825.16;;;14.71;100.00
11349;BME280;5729;43.570;27.826;2023-05-24T02:17:50;98834.09;;;14.75;100.00
11349;BME280;5729;43.570;27.826;2023-05-24T02:20:19;98837.97;;;14.74;100.00
11349;BME280;5729;43.570;27.826;2023-05-24T02:22:47;98834.47;;;14.74;100.00
11349;BME280;5729;43.570;27.826;2023-05-24T02:25:13;98836.03;;;14.75;100.00
11349;BME280;5729;43.570;27.826;2023-05-24T02:27:38;98843.38;;;14.71;100.00
11349;BME280;5729;43.570;27.826;2023-05-24T02:30:05;98841.84;;;14.73;100.00
11349;BME280;5729;43.570;27.826;2023-05-24T02:32:31;98852.31;;;14.75;100.00
11349;BME280;5729;43.570;27.826;2023-05-24T02:34:57;98849.97;;;14.80;100.00
11349;BME280;5729;43.570;27.826;2023-05-24T02:37:26;98849.19;;;14.83;100.00
11349;BME280;5729;43.570;27.826;2023-05-24T02:39:52;98847.63;;;14.86;100.00
11349;BME280;5729;43.570;27.826;2023-05-24T02:42:18;98854.56;;;15.01;100.00
11349;BME280;5729;43.570;27.826;2023-05-24T02:44:43;98857.28;;;15.05;100.00
11349;BME280;5729;43.570;27.826;2023-05-24T02:47:12;98853.03;;;15.07;100.00
11349;BME280;5729;43.570;27.826;2023-05-24T02:49:37;98858.03;;;15.12;100.00
11349;BME280;5729;43.570;27.826;2023-05-24T02:52:03;98867.72;;;15.17;100.00
11349;BME280;5729;43.570;27.826;2023-05-24T02:54:29;98859.97;;;15.19;100.00
11349;BME280;5729;43.570;27.826;2023-05-24T02:56:55;98863.81;;;15.29;100.00
11349;BME280;5729;43.570;27.826;2023-05-24T02:59:22;98859.59;;;15.20;100.00
11349;BME280;5729;43.570;27.826;2023-05-24T03:01:48;98867.34;;;15.18;100.00
11349;BME280;5729;43.570;27.826;2023-05-24T03:04:13;98866.56;;;15.21;100.00
11349;BME280;5729;43.570;27.826;2023-05-24T03:06:38;98867.69;;;15.24;100.00
11349;BME280;5729;43.570;27.826;2023-05-24T03:09:04;98865.00;;;15.24;100.00
11349;BME280;5729;43.570;27.826;2023-05-24T03:11:29;98862.31;;;15.20;100.00
11349;BME280;5729;43.570;27.826;2023-05-24T03:13:55;98859.59;;;15.13;100.00
11349;BME280;5729;43.570;27.826;2023-05-24T03:16:20;98860.78;;;15.05;100.00
11349;BME280;5729;43.570;27.826;2023-05-24T03:18:46;98868.91;;;15.19;100.00
11349;BME280;5729;43.570;27.826;2023-05-24T03:21:11;98861.50;;;15.27;100.00
11349;BME280;5729;43.570;27.826;2023-05-24T03:23:37;98865.75;;;15.32;100.00
11349;BME280;5729;43.570;27.826;2023-05-24T03:26:02;98863.44;;;15.34;100.00
11349;BME280;5729;43.570;27.826;2023-05-24T03:28:28;98863.41;;;15.37;100.00
11349;BME280;5729;43.570;27.826;2023-05-24T03:30:54;98863.78;;;15.43;100.00
11349;BME280;5729;43.570;27.826;2023-05-24T03:33:19;98865.31;;;15.47;100.00
11349;BME280;5729;43.570;27.826;2023-05-24T03:35:45;98871.91;;;15.53;100.00
11349;BME280;5729;43.570;27.826;2023-05-24T03:38:10;98869.19;;;15.57;100.00
11349;BME280;5729;43.570;27.826;2023-05-24T03:40:36;98871.09;;;15.64;100.00
11349;BME280;5729;43.570;27.826;2023-05-24T03:43:02;98866.41;;;15.71;100.00
11349;BME280;5729;43.570;27.826;2023-05-24T03:45:28;98866.00;;;15.80;100.00
11349;BME280;5729;43.570;27.826;2023-05-24T03:47:53;98880.25;;;15.94;100.00
11349;BME280;5729;43.570;27.826;2023-05-24T03:50:19;98875.53;;;16.09;100.00
11349;BME280;5729;43.570;27.826;2023-05-24T03:52:44;98882.81;;;16.23;100.00
11349;BME280;5729;43.570;27.826;2023-05-24T03:55:11;98878.47;;;16.32;100.00
11349;BME280;5729;43.570;27.826;2023-05-24T03:57:36;98878.41;;;16.43;100.00
11349;BME280;5729;43.570;27.826;2023-05-24T04:00:02;98879.88;;;16.55;100.00
11349;BME280;5729;43.570;27.826;2023-05-24T04:02:30;98881.00;;;16.64;100.00
11349;BME280;5729;43.570;27.826;2023-05-24T04:04:56;98882.88;;;16.71;100.00
11349;BME280;5729;43.570;27.826;2023-05-24T04:07:21;98879.75;;;16.73;100.00
11349;BME280;5729;43.570;27.826;2023-05-24T04:09:48;98893.72;;;16.78;100.00
11349;BME280;5729;43.570;27.826;2023-05-24T04:12:14;98877.31;;;16.85;100.00
11349;BME280;5729;43.570;27.826;2023-05-24T04:14:39;98890.88;;;16.92;100.00
11349;BME280;5729;43.570;27.826;2023-05-24T04:17:05;98878.38;;;16.95;100.00
11349;BME280;5729;43.570;27.826;2023-05-24T04:19:32;98888.88;;;16.96;100.00
11349;BME280;5729;43.570;27.826;2023-05-24T04:21:57;98892.38;;;16.97;100.00
11349;BME280;5729;43.570;27.826;2023-05-24T04:24:23;98884.56;;;16.99;100.00
11349;BME280;5729;43.570;27.826;2023-05-24T04:26:48;98890.03;;;16.99;100.00
11349;BME280;5729;43.570;27.826;2023-05-24T04:29:14;98891.13;;;17.05;100.00
11349;BME280;5729;43.570;27.826;2023-05-24T04:31:40;98889.88;;;17.13;100.00
11349;BME280;5729;43.570;27.826;2023-05-24T04:34:09;98894.06;;;17.21;100.00
11349;BME280;5729;43.570;27.826;2023-05-24T04:36:37;98878.03;;;17.30;100.00
11349;BME280;5729;43.570;27.826;2023-05-24T04:39:02;98886.84;;;17.41;100.00
11349;BME280;5729;43.570;27.826;2023-05-24T04:41:29;98887.50;;;17.53;100.00
11349;BME280;5729;43.570;27.826;2023-05-24T04:43:59;98889.78;;;17.58;100.00
11349;BME280;5729;43.570;27.826;2023-05-24T04:46:25;98883.50;;;17.64;100.00
11349;BME280;5729;43.570;27.826;2023-05-24T04:48:53;98886.88;;;17.75;100.00
11349;BME280;5729;43.570;27.826;2023-05-24T04:51:20;98891.78;;;17.88;100.00
11349;BME280;5729;43.570;27.826;2023-05-24T04:53:46;98897.50;;;17.97;100.00
11349;BME280;5729;43.570;27.826;2023-05-24T04:56:11;98893.97;;;18.00;100.00
11349;BME280;5729;43.570;27.826;2023-05-24T04:58:39;98883.00;;;18.03;100.00
11349;BME280;5729;43.570;27.826;2023-05-24T05:01:05;98891.84;;;18.11;100.00
11349;BME280;5729;43.570;27.826;2023-05-24T05:03:31;98897.97;;;18.19;100.00
11349;BME280;5729;43.570;27.826;2023-05-24T05:05:56;98888.94;;;18.25;100.00
11349;BME280;5729;43.570;27.826;2023-05-24T05:08:22;98883.72;;;18.34;100.00
11349;BME280;5729;43.570;27.826;2023-05-24T05:10:47;98893.91;;;18.57;100.00
11349;BME280;5729;43.570;27.826;2023-05-24T05:13:13;98901.81;;;18.75;100.00
11349;BME280;5729;43.570;27.826;2023-05-24T05:15:38;98898.91;;;18.85;100.00
11349;BME280;5729;43.570;27.826;2023-05-24T05:18:04;98904.13;;;19.00;100.00
11349;BME280;5729;43.570;27.826;2023-05-24T05:20:29;98904.63;;;19.18;100.00
11349;BME280;5729;43.570;27.826;2023-05-24T05:22:55;98907.56;;;19.27;100.00
11349;BME280;5729;43.570;27.826;2023-05-24T05:25:20;98902.16;;;19.43;100.00
11349;BME280;5729;43.570;27.826;2023-05-24T05:27:46;98908.75;;;19.46;100.00
11349;BME280;5729;43.570;27.826;2023-05-24T05:30:11;98906.28;;;19.55;100.00
11349;BME280;5729;43.570;27.826;2023-05-24T05:32:37;98912.16;;;19.53;100.00
11349;BME280;5729;43.570;27.826;2023-05-24T05:35:03;98911.47;;;19.49;100.00
11349;BME280;5729;43.570;27.826;2023-05-24T05:37:29;98923.63;;;19.45;100.00
11349;BME280;5729;43.570;27.826;2023-05-24T05:39:55;98921.38;;;19.40;100.00
11349;BME280;5729;43.570;27.826;2023-05-24T05:42:20;98916.91;;;19.30;100.00
11349;BME280;5729;43.570;27.826;2023-05-24T05:44:46;98920.44;;;19.27;100.00
11349;BME280;5729;43.570;27.826;2023-05-24T05:47:11;98918.56;;;19.23;100.00
11349;BME280;5729;43.570;27.826;2023-05-24T05:49:37;98928.06;;;19.15;100.00
11349;BME280;5729;43.570;27.826;2023-05-24T05:52:05;98923.03;;;19.14;100.00
11349;BME280;5729;43.570;27.826;2023-05-24T05:54:31;98920.72;;;18.89;100.00
11349;BME280;5729;43.570;27.826;2023-05-24T05:56:57;98918.78;;;19.09;100.00
11349;BME280;5729;43.570;27.826;2023-05-24T05:59:22;98926.88;;;19.16;100.00
11349;BME280;5729;43.570;27.826;2023-05-24T06:01:48;98926.69;;;19.27;100.00
11349;BME280;5729;43.570;27.826;2023-05-24T06:04:14;98931.25;;;19.34;100.00
11349;BME280;5729;43.570;27.826;2023-05-24T06:06:40;98921.38;;;19.40;100.00
11349;BME280;5729;43.570;27.826;2023-05-24T06:09:06;98926.72;;;19.47;100.00
11349;BME280;5729;43.570;27.826;2023-05-24T06:11:31;98928.91;;;19.55;100.00
11349;BME280;5729;43.570;27.826;2023-05-24T06:13:57;98916.78;;;19.56;100.00
11349;BME280;5729;43.570;27.826;2023-05-24T06:16:22;98927.94;;;19.66;100.00
11349;BME280;5729;43.570;27.826;2023-05-24T06:18:48;98923.03;;;19.77;100.00
11349;BME280;5729;43.570;27.826;2023-05-24T06:21:14;98918.53;;;19.86;100.00
11349;BME280;5729;43.570;27.826;2023-05-24T06:23:39;98927.38;;;19.94;100.00
11349;BME280;5729;43.570;27.826;2023-05-24T06:26:05;98935.94;;;19.96;100.00
11349;BME280;5729;43.570;27.826;2023-05-24T06:28:34;98928.28;;;20.07;100.00
11349;BME280;5729;43.570;27.826;2023-05-24T06:30:59;98917.75;;;20.06;100.00
11349;BME280;5729;43.570;27.826;2023-05-24T06:33:25;98925.72;;;20.16;100.00
11349;BME280;5729;43.570;27.826;2023-05-24T06:35:52;98926.19;;;20.31;100.00
11349;BME280;5729;43.570;27.826;2023-05-24T06:38:17;98927.06;;;20.44;100.00
11349;BME280;5729;43.570;27.826;2023-05-24T06:40:43;98913.72;;;20.46;100.00
11349;BME280;5729;43.570;27.826;2023-05-24T06:43:08;98909.81;;;20.47;100.00
11349;BME280;5729;43.570;27.826;2023-05-24T06:45:33;98914.69;;;20.56;100.00
11349;BME280;5729;43.570;27.826;2023-05-24T06:47:59;98919.31;;;20.59;100.00
11349;BME280;5729;43.570;27.826;2023-05-24T06:50:25;98924.09;;;20.55;100.00
11349;BME280;5729;43.570;27.826;2023-05-24T06:52:50;98909.72;;;20.67;100.00
11349;BME280;5729;43.570;27.826;2023-05-24T06:55:15;98928.72;;;20.74;100.00
11349;BME280;5729;43.570;27.826;2023-05-24T06:57:41;98908.25;;;20.79;100.00
11349;BME280;5729;43.570;27.826;2023-05-24T07:00:07;98915.78;;;20.91;100.00
11349;BME280;5729;43.570;27.826;2023-05-24T07:02:36;98910.81;;;21.02;100.00
11349;BME280;5729;43.570;27.826;2023-05-24T07:05:02;98906.09;;;21.19;100.00
11349;BME280;5729;43.570;27.826;2023-05-24T07:07:27;98912.50;;;21.28;100.00
11349;BME280;5729;43.570;27.826;2023-05-24T07:09:53;98912.66;;;21.37;100.00
11349;BME280;5729;43.570;27.826;2023-05-24T07:12:18;98914.16;;;21.55;100.00
11349;BME280;5729;43.570;27.826;2023-05-24T07:14:44;98915.88;;;21.78;100.00
11349;BME280;5729;43.570;27.826;2023-05-24T07:17:10;98910.06;;;21.88;100.00
11349;BME280;5729;43.570;27.826;2023-05-24T07:19:35;98905.38;;;22.14;100.00
11349;BME280;5729;43.570;27.826;2023-05-24T07:22:01;98907.72;;;22.54;100.00
11349;BME280;5729;43.570;27.826;2023-05-24T07:24:26;98905.81;;;22.89;100.00
11349;BME280;5729;43.570;27.826;2023-05-24T07:26:52;98911.44;;;23.20;100.00
11349;BME280;5729;43.570;27.826;2023-05-24T07:29:18;98906.06;;;23.50;100.00
11349;BME280;5729;43.570;27.826;2023-05-24T07:31:45;98917.38;;;23.52;100.00
11349;BME280;5729;43.570;27.826;2023-05-24T07:34:12;98910.41;;;23.61;100.00
11349;BME280;5729;43.570;27.826;2023-05-24T07:36:37;98912.94;;;23.99;100.00
11349;BME280;5729;43.570;27.826;2023-05-24T07:39:05;98905.50;;;24.39;100.00
11349;BME280;5729;43.570;27.826;2023-05-24T07:41:30;98916.31;;;24.74;100.00
11349;BME280;5729;43.570;27.826;2023-05-24T07:43:57;98906.69;;;24.78;100.00
11349;BME280;5729;43.570;27.826;2023-05-24T07:46:22;98906.25;;;24.89;100.00
11349;BME280;5729;43.570;27.826;2023-05-24T07:48:48;98916.97;;;24.87;100.00
11349;BME280;5729;43.570;27.826;2023-05-24T07:51:13;98914.06;;;24.81;100.00
11349;BME280;5729;43.570;27.826;2023-05-24T07:53:39;98918.84;;;24.99;100.00
11349;BME280;5729;43.570;27.826;2023-05-24T07:56:05;98918.56;;;25.15;100.00
11349;BME280;5729;43.570;27.826;2023-05-24T07:58:32;98924.69;;;25.19;100.00
11349;BME280;5729;43.570;27.826;2023-05-24T08:00:57;98915.22;;;25.39;100.00
11349;BME280;5729;43.570;27.826;2023-05-24T08:03:23;98919.78;;;26.71;100.00
11349;BME280;5729;43.570;27.826;2023-05-24T08:05:50;98921.66;;;28.89;77.07
11349;BME280;5729;43.570;27.826;2023-05-24T08:08:16;98919.03;;;28.80;66.71
11349;BME280;5729;43.570;27.826;2023-05-24T08:10:41;98918.66;;;29.80;72.76
11349;BME280;5729;43.570;27.826;2023-05-24T08:13:07;98913.53;;;34.39;54.85
11349;BME280;5729;43.570;27.826;2023-05-24T08:15:32;98917.06;;;37.93;38.57
11349;BME280;5729;43.570;27.826;2023-05-24T08:17:58;98908.56;;;40.85;31.76
11349;BME280;5729;43.570;27.826;2023-05-24T08:20:23;98915.88;;;42.26;29.51
11349;BME280;5729;43.570;27.826;2023-05-24T08:22:49;98905.72;;;42.23;25.97
11349;BME280;5729;43.570;27.826;2023-05-24T08:25:14;98910.72;;;42.91;26.45
11349;BME280;5729;43.570;27.826;2023-05-24T08:27:40;98917.06;;;41.33;25.47
11349;BME280;5729;43.570;27.826;2023-05-24T08:30:06;98911.06;;;40.58;26.35
11349;BME280;5729;43.570;27.826;2023-05-24T08:32:32;98906.22;;;41.54;27.04
11349;BME280;5729;43.570;27.826;2023-05-24T08:34:58;98910.69;;;43.26;23.19
11349;BME280;5729;43.570;27.826;2023-05-24T08:37:23;98911.16;;;42.28;23.58
11349;BME280;5729;43.570;27.826;2023-05-24T08:39:49;98899.38;;;43.53;24.51
11349;BME280;5729;43.570;27.826;2023-05-24T08:42:15;98897.81;;;44.90;21.79
11349;BME280;5729;43.570;27.826;2023-05-24T08:44:46;98901.09;;;46.58;20.10
11349;BME280;5729;43.570;27.826;2023-05-24T08:47:13;98899.47;;;47.66;18.88
11349;BME280;5729;43.570;27.826;2023-05-24T08:49:40;98894.56;;;46.89;18.27
11349;BME280;5729;43.570;27.826;2023-05-24T08:52:06;98893.03;;;47.54;18.54
11349;BME280;5729;43.570;27.826;2023-05-24T08:54:35;98895.88;;;48.47;18.16
11349;BME280;5729;43.570;27.826;2023-05-24T08:57:01;98897.00;;;49.55;18.03
11349;BME280;5729;43.570;27.826;2023-05-24T08:59:27;98895.69;;;47.85;17.30
11349;BME280;5729;43.570;27.826;2023-05-24T09:01:53;98890.53;;;47.37;17.25
11349;BME280;5729;43.570;27.826;2023-05-24T09:04:20;98882.97;;;45.20;18.61
11349;BME280;5729;43.570;27.826;2023-05-24T09:06:46;98889.63;;;44.09;19.75
11349;BME280;5729;43.570;27.826;2023-05-24T09:09:16;98885.53;;;44.59;20.54
11349;BME280;5729;43.570;27.826;2023-05-24T09:11:44;98895.28;;;46.35;18.38
11349;BME280;5729;43.570;27.826;2023-05-24T09:14:12;98887.06;;;45.99;18.13
11349;BME280;5729;43.570;27.826;2023-05-24T09:16:38;98890.28;;;43.10;20.30
11349;BME280;5729;43.570;27.826;2023-05-24T09:19:03;98879.56;;;45.12;19.76
11349;BME280;5729;43.570;27.826;2023-05-24T09:21:29;98882.50;;;46.79;18.48
11349;BME280;5729;43.570;27.826;2023-05-24T09:23:54;98881.16;;;47.13;18.00
11349;BME280;5729;43.570;27.826;2023-05-24T09:26:20;98884.91;;;46.94;19.01
11349;BME280;5729;43.570;27.826;2023-05-24T09:28:46;98879.56;;;45.63;19.66
11349;BME280;5729;43.570;27.826;2023-05-24T09:31:12;98880.19;;;43.97;21.25
11349;BME280;5729;43.570;27.826;2023-05-24T09:33:38;98878.63;;;40.67;24.21
11349;BME280;5729;43.570;27.826;2023-05-24T09:36:04;98872.38;;;38.88;25.57
11349;BME280;5729;43.570;27.826;2023-05-24T09:38:31;98869.94;;;36.71;28.69
11349;BME280;5729;43.570;27.826;2023-05-24T09:41:04;98871.25;;;35.48;30.42
11349;BME280;5729;43.570;27.826;2023-05-24T09:43:34;98881.59;;;34.23;33.01
11349;BME280;5729;43.570;27.826;2023-05-24T09:46:03;98869.59;;;32.59;35.99
11349;BME280;5729;43.570;27.826;2023-05-24T09:48:29;98865.63;;;31.70;37.44
11349;BME280;5729;43.570;27.826;2023-05-24T09:51:06;98871.47;;;30.96;40.82
11349;BME280;5729;43.570;27.826;2023-05-24T09:53:36;98866.66;;;29.80;54.25
11349;BME280;5729;43.570;27.826;2023-05-24T09:56:05;98877.28;;;29.10;86.96
11349;BME280;5729;43.570;27.826;2023-05-24T09:58:33;98875.97;;;27.56;100.00
11349;BME280;5729;43.570;27.826;2023-05-24T10:01:05;98882.34;;;26.94;100.00
11349;BME280;5729;43.570;27.826;2023-05-24T10:03:32;98884.38;;;26.19;100.00
11349;BME280;5729;43.570;27.826;2023-05-24T10:05:58;98885.28;;;25.83;100.00
11349;BME280;5729;43.570;27.826;2023-05-24T10:08:25;98879.03;;;25.37;100.00
11349;BME280;5729;43.570;27.826;2023-05-24T10:10:51;98876.72;;;25.62;100.00
11349;BME280;5729;43.570;27.826;2023-05-24T10:13:17;98857.22;;;25.75;100.00
11349;BME280;5729;43.570;27.826;2023-05-24T10:15:43;98878.72;;;25.71;100.00
11349;BME280;5729;43.570;27.826;2023-05-24T10:18:09;98872.28;;;25.28;100.00
11349;BME280;5729;43.570;27.826;2023-05-24T10:20:35;98877.19;;;25.24;100.00
11349;BME280;5729;43.570;27.826;2023-05-24T10:23:03;98873.38;;;25.13;100.00
11349;BME280;5729;43.570;27.826;2023-05-24T10:25:33;98879.13;;;24.69;100.00
11349;BME280;5729;43.570;27.826;2023-05-24T10:28:06;98883.03;;;24.50;100.00
11349;BME280;5729;43.570;27.826;2023-05-24T10:30:44;98892.59;;;24.27;100.00
11349;BME280;5729;43.570;27.826;2023-05-24T10:33:13;98909.13;;;24.05;100.00
11349;BME280;5729;43.570;27.826;2023-05-24T10:35:39;98905.19;;;23.41;100.00
11349;BME280;5729;43.570;27.826;2023-05-24T10:38:06;98921.75;;;22.81;100.00
11349;BME280;5729;43.570;27.826;2023-05-24T10:40:32;98920.66;;;22.28;100.00
11349;BME280;5729;43.570;27.826;2023-05-24T10:42:58;98932.03;;;21.88;100.00
11349;BME280;5729;43.570;27.826;2023-05-24T10:47:49;98944.28;;;21.26;100.00
11349;BME280;5729;43.570;27.826;2023-05-24T10:50:16;98939.91;;;21.28;100.00
11349;BME280;5729;43.570;27.826;2023-05-24T10:52:43;98930.41;;;21.33;100.00
11349;BME280;5729;43.570;27.826;2023-05-24T10:55:09;98937.91;;;21.45;100.00
11349;BME280;5729;43.570;27.826;2023-05-24T10:57:37;98948.25;;;21.54;100.00
11349;BME280;5729;43.570;27.826;2023-05-24T11:03:22;98943.06;;;21.11;100.00
11349;BME280;5729;43.570;27.826;2023-05-24T11:08:38;98937.69;;;20.42;100.00
11349;BME280;5729;43.570;27.826;2023-05-24T11:11:13;98947.09;;;20.21;100.00
11349;BME280;5729;43.570;27.826;2023-05-24T11:13:45;98946.03;;;19.79;100.00
11349;BME280;5729;43.570;27.826;2023-05-24T11:16:37;98947.63;;;19.57;100.00
11349;BME280;5729;43.570;27.826;2023-05-24T11:21:46;98947.25;;;18.89;100.00
11349;BME280;5729;43.570;27.826;2023-05-24T11:24:12;98942.78;;;18.98;100.00
11349;BME280;5729;43.570;27.826;2023-05-24T11:26:38;98934.78;;;19.11;100.00
11349;BME280;5729;43.570;27.826;2023-05-24T11:29:03;98931.00;;;19.05;100.00
11349;BME280;5729;43.570;27.826;2023-05-24T11:31:30;98933.31;;;19.06;100.00
11349;BME280;5729;43.570;27.826;2023-05-24T11:33:56;98930.75;;;18.96;100.00
11349;BME280;5729;43.570;27.826;2023-05-24T11:36:21;98947.59;;;18.67;100.00
11349;BME280;5729;43.570;27.826;2023-05-24T11:38:48;98952.91;;;18.74;100.00
11349;BME280;5729;43.570;27.826;2023-05-24T11:41:14;98961.31;;;18.87;100.00
11349;BME280;5729;43.570;27.826;2023-05-24T11:43:39;98965.22;;;18.86;100.00
11349;BME280;5729;43.570;27.826;2023-05-24T11:46:06;98962.50;;;19.09;100.00
11349;BME280;5729;43.570;27.826;2023-05-24T11:48:32;98955.31;;;19.19;100.00
11349;BME280;5729;43.570;27.826;2023-05-24T11:50:57;98953.66;;;19.48;100.00
11349;BME280;5729;43.570;27.826;2023-05-24T11:53:24;98960.47;;;19.60;100.00
11349;BME280;5729;43.570;27.826;2023-05-24T11:55:51;98960.53;;;19.76;100.00
11349;BME280;5729;43.570;27.826;2023-05-24T11:58:22;98960.31;;;19.87;100.00
11349;BME280;5729;43.570;27.826;2023-05-24T12:00:50;98949.44;;;20.03;100.00
11349;BME280;5729;43.570;27.826;2023-05-24T12:03:15;98941.78;;;20.14;100.00
11349;BME280;5729;43.570;27.826;2023-05-24T12:05:42;98957.19;;;20.24;100.00
11349;BME280;5729;43.570;27.826;2023-05-24T12:08:09;98953.97;;;20.29;100.00
11349;BME280;5729;43.570;27.826;2023-05-24T12:10:37;98949.91;;;20.38;100.00
11349;BME280;5729;43.570;27.826;2023-05-24T12:13:04;98947.28;;;20.50;100.00
11349;BME280;5729;43.570;27.826;2023-05-24T12:15:30;98934.25;;;20.54;100.00
11349;BME280;5729;43.570;27.826;2023-05-24T12:17:56;98929.41;;;20.62;100.00
11349;BME280;5729;43.570;27.826;2023-05-24T12:20:23;98935.06;;;20.71;100.00
11349;BME280;5729;43.570;27.826;2023-05-24T12:22:52;98933.25;;;20.81;100.00
11349;BME280;5729;43.570;27.826;2023-05-24T12:25:19;98939.69;;;20.74;100.00
11349;BME280;5729;43.570;27.826;2023-05-24T12:27:46;98941.31;;;20.88;100.00
11349;BME280;5729;43.570;27.826;2023-05-24T12:30:21;98939.59;;;21.10;100.00
11349;BME280;5729;43.570;27.826;2023-05-24T12:32:47;98932.69;;;21.34;100.00
11349;BME280;5729;43.570;27.826;2023-05-24T12:35:14;98938.28;;;21.60;100.00
11349;BME280;5729;43.570;27.826;2023-05-24T12:37:41;98922.59;;;21.60;100.00
11349;BME280;5729;43.570;27.826;2023-05-24T12:40:18;98914.41;;;21.73;100.00
11349;BME280;5729;43.570;27.826;2023-05-24T12:42:55;98919.84;;;21.89;100.00
11349;BME280;5729;43.570;27.826;2023-05-24T12:45:25;98912.22;;;22.09;100.00
11349;BME280;5729;43.570;27.826;2023-05-24T12:47:56;98921.22;;;22.23;100.00
11349;BME280;5729;43.570;27.826;2023-05-24T12:50:24;98921.53;;;22.37;100.00
11349;BME280;5729;43.570;27.826;2023-05-24T12:52:51;98904.41;;;22.46;100.00
11349;BME280;5729;43.570;27.826;2023-05-24T12:55:18;98908.78;;;22.69;100.00
11349;BME280;5729;43.570;27.826;2023-05-24T12:57:45;98898.22;;;22.93;100.00
11349;BME280;5729;43.570;27.826;2023-05-24T13:00:18;98896.53;;;23.08;100.00
11349;BME280;5729;43.570;27.826;2023-05-24T13:02:44;98904.34;;;23.09;100.00
11349;BME280;5729;43.570;27.826;2023-05-24T13:05:09;98908.75;;;23.29;100.00
11349;BME280;5729;43.570;27.826;2023-05-24T13:07:36;98904.34;;;23.31;100.00
11349;BME280;5729;43.570;27.826;2023-05-24T13:10:02;98903.84;;;23.24;100.00
11349;BME280;5729;43.570;27.826;2023-05-24T13:12:27;98909.38;;;23.11;100.00
11349;BME280;5729;43.570;27.826;2023-05-24T13:14:53;98894.22;;;23.06;100.00
11349;BME280;5729;43.570;27.826;2023-05-24T13:17:19;98886.38;;;22.83;100.00